createdAt,value
2019-03-15T00:01:58.945Z,5.28
2019-03-15T00:04:27.289Z,5.34
2019-03-15T00:06:55.628Z,5.38
2019-03-15T00:09:23.968Z,5.38
2019-03-15T00:11:52.439Z,5.40
2019-03-15T00:14:20.803Z,5.43
2019-03-15T00:19:23.336Z,5.51
2019-03-15T00:21:53.587Z,5.47
2019-03-15T00:26:56.173Z,5.52
2019-03-15T00:32:01.798Z,5.56
2019-03-15T00:34:30.132Z,5.51
2019-03-15T00:36:58.467Z,5.53
2019-03-15T00:39:26.830Z,5.48
2019-03-15T00:41:55.199Z,5.54
2019-03-15T00:44:26.985Z,5.47
2019-03-15T00:49:29.552Z,5.42
2019-03-15T00:51:58.868Z,5.33
2019-03-15T00:54:27.214Z,5.18
2019-03-15T00:56:55.535Z,5.10
2019-03-15T00:59:23.887Z,5.02
2019-03-15T01:04:26.497Z,4.81
2019-03-15T01:06:54.848Z,4.82
2019-03-15T01:09:23.176Z,4.73
2019-03-15T01:11:52.472Z,4.62
2019-03-15T01:14:20.828Z,4.53
2019-03-15T01:16:49.224Z,4.32
2019-03-15T01:19:17.586Z,4.21
2019-03-15T01:21:45.917Z,4.20
2019-03-15T01:24:14.685Z,4.18
2019-03-15T01:26:44.121Z,4.16
2019-03-15T01:29:12.496Z,4.11
2019-03-15T01:31:40.874Z,3.98
2019-03-15T01:34:10.196Z,3.89
2019-03-15T01:36:38.525Z,3.78
2019-03-15T01:39:06.969Z,3.73
2019-03-15T01:41:35.319Z,3.73
2019-03-15T01:44:04.549Z,3.82
2019-03-15T01:46:33.658Z,3.82
2019-03-15T01:51:35.527Z,3.89
2019-03-15T01:54:03.868Z,3.91
2019-03-15T01:56:32.202Z,3.91
2019-03-15T01:59:00.548Z,4.01
2019-03-15T02:01:28.890Z,3.98
2019-03-15T02:03:57.239Z,3.88
2019-03-15T02:06:25.626Z,3.97
2019-03-15T02:08:55.174Z,3.94
2019-03-15T02:11:23.516Z,4.02
2019-03-15T02:13:51.856Z,4.09
2019-03-15T02:16:20.196Z,3.99
2019-03-15T02:21:23.656Z,3.98
2019-03-15T02:26:27.224Z,3.98
2019-03-15T02:28:56.515Z,4.00
2019-03-15T02:31:25.009Z,3.95
2019-03-15T02:33:54.263Z,4.12
2019-03-15T02:36:22.613Z,4.15
2019-03-15T02:38:52.001Z,3.99
2019-03-15T02:41:20.444Z,3.97
2019-03-15T02:43:48.805Z,3.95
2019-03-15T02:46:17.194Z,3.93
2019-03-15T02:51:19.901Z,3.95
2019-03-15T02:53:51.709Z,3.97
2019-03-15T02:56:20.047Z,4.01
2019-03-15T02:58:48.376Z,3.97
2019-03-15T03:01:16.725Z,3.97
2019-03-15T03:03:45.160Z,4.03
2019-03-15T03:08:49.684Z,4.05
2019-03-15T03:11:18.050Z,4.13
2019-03-15T03:13:46.348Z,4.09
2019-03-15T03:16:14.699Z,4.01
2019-03-15T03:21:18.275Z,4.09
2019-03-15T03:23:52.161Z,3.93
2019-03-15T03:26:20.501Z,3.84
2019-03-15T03:28:54.050Z,3.92
2019-03-15T03:31:21.061Z,3.95
2019-03-15T03:33:51.321Z,3.91
2019-03-15T03:36:19.690Z,3.98
2019-03-15T03:41:23.482Z,3.92
2019-03-15T03:43:51.820Z,3.96
2019-03-15T03:46:20.160Z,3.96
2019-03-15T03:48:49.453Z,4.00
2019-03-15T03:51:17.810Z,4.10
2019-03-15T03:53:46.120Z,4.19
2019-03-15T03:56:15.398Z,4.11
2019-03-15T03:58:43.754Z,4.13
2019-03-15T04:01:16.445Z,4.25
2019-03-15T04:03:44.857Z,4.30
2019-03-15T04:06:14.088Z,4.32
2019-03-15T04:08:43.336Z,4.29
2019-03-15T04:11:11.665Z,4.30
2019-03-15T04:13:40.013Z,4.36
2019-03-15T04:18:46.506Z,4.50
2019-03-15T04:21:15.783Z,4.42
2019-03-15T04:23:44.123Z,4.52
2019-03-15T04:26:12.448Z,4.52
2019-03-15T04:28:40.797Z,4.50
2019-03-15T04:31:13.055Z,4.46
2019-03-15T04:33:41.389Z,4.55
2019-03-15T04:36:09.731Z,4.58
2019-03-15T04:38:38.082Z,4.62
2019-03-15T04:41:06.564Z,4.68
2019-03-15T04:43:35.943Z,4.71
2019-03-15T04:46:04.293Z,4.66
2019-03-15T04:48:32.660Z,4.72
2019-03-15T04:51:00.970Z,4.71
2019-03-15T04:53:30.322Z,4.80
2019-03-15T04:56:03.717Z,4.81
2019-03-15T04:58:33.004Z,4.82
2019-03-15T05:01:01.405Z,4.76
2019-03-15T05:03:29.719Z,4.83
2019-03-15T05:06:03.503Z,4.76
2019-03-15T05:08:26.429Z,4.82
2019-03-15T05:10:55.737Z,4.86
2019-03-15T05:13:24.972Z,4.86
2019-03-15T05:15:54.244Z,4.89
2019-03-15T05:18:22.586Z,4.84
2019-03-15T05:20:50.983Z,4.83
2019-03-15T05:23:20.323Z,4.90
2019-03-15T05:25:48.672Z,4.91
2019-03-15T05:30:51.331Z,4.94
2019-03-15T05:33:20.324Z,4.90
2019-03-15T05:35:48.661Z,4.90
2019-03-15T05:40:54.273Z,5.05
2019-03-15T05:43:22.611Z,4.98
2019-03-15T05:45:50.968Z,4.87
2019-03-15T05:48:19.707Z,4.72
2019-03-15T05:50:48.036Z,4.64
2019-03-15T05:53:17.306Z,4.56
2019-03-15T05:55:45.795Z,4.59
2019-03-15T05:58:14.145Z,4.59
2019-03-15T06:00:42.508Z,4.64
2019-03-15T06:03:12.720Z,4.56
2019-03-15T06:05:40.156Z,4.52
2019-03-15T06:08:08.512Z,4.57
2019-03-15T06:10:36.864Z,4.58
2019-03-15T06:13:05.228Z,4.60
2019-03-15T06:15:33.591Z,4.62
2019-03-15T06:18:01.972Z,4.60
2019-03-15T06:20:30.289Z,4.64
2019-03-15T06:22:58.628Z,4.71
2019-03-15T06:25:26.975Z,4.88
2019-03-15T06:27:55.313Z,4.97
2019-03-15T06:30:24.552Z,5.13
2019-03-15T06:32:52.900Z,5.19
2019-03-15T06:35:22.184Z,5.25
2019-03-15T06:37:50.510Z,5.27
2019-03-15T06:40:18.876Z,5.34
2019-03-15T06:42:47.207Z,5.41
2019-03-15T06:45:16.539Z,5.41
2019-03-15T06:47:44.961Z,5.46
2019-03-15T06:50:14.231Z,5.60
2019-03-15T06:52:42.565Z,5.64
2019-03-15T06:57:45.217Z,5.74
2019-03-15T07:00:13.548Z,5.75
2019-03-15T07:05:20.660Z,5.75
2019-03-15T07:07:48.507Z,5.83
2019-03-15T07:10:26.671Z,5.83
2019-03-15T07:12:55.018Z,5.77
2019-03-15T07:15:27.532Z,5.85
2019-03-15T07:17:56.798Z,5.92
2019-03-15T07:20:25.159Z,5.93
2019-03-15T07:22:53.521Z,5.90
2019-03-15T07:27:58.309Z,5.99
2019-03-15T07:30:30.788Z,5.99
2019-03-15T07:33:01.032Z,5.93
2019-03-15T07:35:43.867Z,5.94
2019-03-15T07:40:48.458Z,5.84
2019-03-15T07:43:40.280Z,5.79
2019-03-15T07:46:11.854Z,5.74
2019-03-15T07:48:42.107Z,5.75
2019-03-15T07:53:47.647Z,5.62
2019-03-15T07:56:21.360Z,5.53
2019-03-15T07:59:04.502Z,5.48
2019-03-15T08:01:40.434Z,5.41
2019-03-15T08:04:16.687Z,5.33
2019-03-15T08:06:43.838Z,5.29
2019-03-15T08:09:12.316Z,5.25
2019-03-15T08:11:54.046Z,5.20
2019-03-15T08:16:56.578Z,5.25
2019-03-15T08:22:03.053Z,5.15
2019-03-15T08:24:36.482Z,5.16
2019-03-15T08:27:02.664Z,5.09
2019-03-15T08:29:31.061Z,4.98
2019-03-15T08:32:00.389Z,4.89
2019-03-15T08:37:04.953Z,4.92
2019-03-15T08:39:34.313Z,4.84
2019-03-15T08:42:02.656Z,4.79
2019-03-15T08:44:32.011Z,4.72
2019-03-15T08:47:02.327Z,4.80
2019-03-15T08:49:30.656Z,4.83
2019-03-15T08:52:03.814Z,4.85
2019-03-15T08:54:27.343Z,4.80
2019-03-15T08:56:55.716Z,4.69
2019-03-15T08:59:24.043Z,4.72
2019-03-15T09:01:52.409Z,4.68
2019-03-15T09:07:03.689Z,4.59
2019-03-15T09:09:31.998Z,4.77
2019-03-15T09:12:00.380Z,4.65
2019-03-15T09:14:28.728Z,4.67
2019-03-15T09:16:57.072Z,4.53
2019-03-15T09:19:26.343Z,4.62
2019-03-15T09:21:54.685Z,4.44
2019-03-15T09:24:24.949Z,4.37
2019-03-15T09:26:53.292Z,4.42
2019-03-15T09:29:21.632Z,4.46
2019-03-15T09:31:50.005Z,4.44
2019-03-15T09:34:19.307Z,4.37
2019-03-15T09:36:50.393Z,4.22
2019-03-15T09:39:16.048Z,4.16
2019-03-15T09:41:45.295Z,4.20
2019-03-15T09:44:13.631Z,4.26
2019-03-15T09:46:42.982Z,4.16
2019-03-15T09:49:11.323Z,4.18
2019-03-15T09:51:39.664Z,4.22
2019-03-15T09:54:08.024Z,4.26
2019-03-15T09:56:37.313Z,4.40
2019-03-15T09:59:05.656Z,4.37
2019-03-15T10:01:35.517Z,4.28
2019-03-15T10:04:02.356Z,4.37
2019-03-15T10:06:30.704Z,4.35
2019-03-15T10:08:59.058Z,4.43
2019-03-15T10:11:27.396Z,4.42
2019-03-15T10:13:56.711Z,4.49
2019-03-15T10:16:25.070Z,4.54
2019-03-15T10:18:53.420Z,4.65
2019-03-15T10:21:21.833Z,4.86
2019-03-15T10:23:50.180Z,4.73
2019-03-15T10:26:19.041Z,4.71
2019-03-15T10:28:47.387Z,4.79
2019-03-15T10:31:16.644Z,4.85
2019-03-15T10:33:50.295Z,4.82
2019-03-15T10:36:13.320Z,4.94
2019-03-15T10:38:41.676Z,5.01
2019-03-15T10:41:10.030Z,4.92
2019-03-15T10:43:38.365Z,5.08
2019-03-15T10:46:08.685Z,5.07
2019-03-15T10:48:37.996Z,5.09
2019-03-15T10:51:06.332Z,5.06
2019-03-15T10:53:34.688Z,5.11
2019-03-15T10:56:03.036Z,5.28
2019-03-15T10:58:31.401Z,5.45
2019-03-15T11:00:59.740Z,5.57
2019-03-15T11:03:28.127Z,5.58
2019-03-15T11:05:56.468Z,5.68
2019-03-15T11:08:24.814Z,5.80
2019-03-15T11:10:54.177Z,5.89
2019-03-15T11:13:22.517Z,5.96
2019-03-15T11:15:51.830Z,5.99
2019-03-15T11:18:21.144Z,6.04
2019-03-15T11:20:49.477Z,6.09
2019-03-15T11:23:17.825Z,6.09
2019-03-15T11:25:46.179Z,6.01
2019-03-15T11:28:14.507Z,6.06
2019-03-15T11:30:43.783Z,6.04
2019-03-15T11:33:12.127Z,6.14
2019-03-15T11:35:40.488Z,6.22
2019-03-15T11:38:08.838Z,6.43
2019-03-15T11:40:38.129Z,6.44
2019-03-15T11:43:06.425Z,6.45
2019-03-15T11:45:35.720Z,6.56
2019-03-15T11:48:04.581Z,6.61
2019-03-15T11:50:32.494Z,6.55
2019-03-15T11:53:00.853Z,6.61
2019-03-15T11:55:29.225Z,6.70
2019-03-15T11:57:57.576Z,6.76
2019-03-15T12:00:25.924Z,6.88
2019-03-15T12:02:54.282Z,6.98
2019-03-15T12:05:22.638Z,7.11
2019-03-15T12:07:50.960Z,7.19
2019-03-15T12:10:19.302Z,7.31
2019-03-15T12:12:47.668Z,7.44
2019-03-15T12:15:19.176Z,7.58
2019-03-15T12:17:47.536Z,7.64
2019-03-15T12:20:15.887Z,7.75
2019-03-15T12:22:44.255Z,7.78
2019-03-15T12:25:13.526Z,7.85
2019-03-15T12:27:41.861Z,7.87
2019-03-15T12:30:13.585Z,7.96
2019-03-15T12:32:43.929Z,8.00
2019-03-15T12:35:12.280Z,8.07
2019-03-15T12:37:40.624Z,8.09
2019-03-15T12:40:11.510Z,8.09
2019-03-15T12:42:39.845Z,8.14
2019-03-15T12:45:09.020Z,8.12
2019-03-15T12:47:37.332Z,8.08
2019-03-15T12:50:08.401Z,8.08
2019-03-15T12:52:46.507Z,8.12
2019-03-15T12:55:05.171Z,8.11
2019-03-15T12:57:33.545Z,8.11
2019-03-15T13:00:01.903Z,8.14
2019-03-15T13:02:31.220Z,8.16
2019-03-15T13:05:00.493Z,8.22
2019-03-15T13:07:28.840Z,8.26
2019-03-15T13:09:57.180Z,8.18
2019-03-15T13:12:26.474Z,8.18
2019-03-15T13:14:54.819Z,8.21
2019-03-15T13:17:24.516Z,8.25
2019-03-15T13:19:55.441Z,8.31
2019-03-15T13:22:22.180Z,8.37
2019-03-15T13:24:51.745Z,8.38
2019-03-15T13:27:20.138Z,8.39
2019-03-15T13:29:48.520Z,8.41
2019-03-15T13:32:16.860Z,8.39
2019-03-15T13:34:47.126Z,8.38
2019-03-15T13:37:15.484Z,8.34
2019-03-15T13:42:18.154Z,8.38
2019-03-15T13:47:20.815Z,8.41
2019-03-15T13:52:23.366Z,8.53
2019-03-15T13:54:51.776Z,8.44
2019-03-15T13:57:21.802Z,8.41
2019-03-15T13:59:49.342Z,8.40
2019-03-15T14:02:18.594Z,8.40
2019-03-15T14:04:46.935Z,8.45
2019-03-15T14:07:15.300Z,8.49
2019-03-15T14:09:43.642Z,8.47
2019-03-15T14:12:11.989Z,8.47
2019-03-15T14:14:41.324Z,8.52
2019-03-15T14:17:09.697Z,8.49
2019-03-15T14:19:38.999Z,8.52
2019-03-15T14:22:07.438Z,8.52
2019-03-15T14:24:35.772Z,8.51
2019-03-15T14:27:04.120Z,8.54
2019-03-15T14:29:32.465Z,8.58
2019-03-15T14:32:00.809Z,8.61
2019-03-15T14:34:29.159Z,8.60
2019-03-15T14:36:57.658Z,8.63
2019-03-15T14:42:00.332Z,8.71
2019-03-15T14:44:28.560Z,8.73
2019-03-15T14:46:56.810Z,8.74
2019-03-15T14:49:25.165Z,8.77
2019-03-15T14:51:53.673Z,8.84
2019-03-15T14:54:22.024Z,8.82
2019-03-15T14:56:50.376Z,8.79
2019-03-15T14:59:18.752Z,8.83
2019-03-15T15:01:47.104Z,8.80
2019-03-15T15:04:16.362Z,8.77
2019-03-15T15:06:43.802Z,8.79
2019-03-15T15:09:12.191Z,8.79
2019-03-15T15:11:40.574Z,8.80
2019-03-15T15:14:08.886Z,8.80
2019-03-15T15:16:38.194Z,8.88
2019-03-15T15:19:07.435Z,8.87
2019-03-15T15:21:35.782Z,8.84
2019-03-15T15:24:04.191Z,8.84
2019-03-15T15:26:32.556Z,8.84
2019-03-15T15:29:00.892Z,8.89
2019-03-15T15:31:29.248Z,8.84
2019-03-15T15:33:58.992Z,8.85
2019-03-15T15:36:25.950Z,8.85
2019-03-15T15:38:54.316Z,8.85
2019-03-15T15:41:22.678Z,8.86
2019-03-15T15:43:51.021Z,8.85
2019-03-15T15:46:19.373Z,8.90
2019-03-15T15:51:21.949Z,8.85
2019-03-15T15:53:51.280Z,8.85
2019-03-15T15:56:19.642Z,8.83
2019-03-15T15:58:48.033Z,8.87
2019-03-15T16:01:16.396Z,8.80
2019-03-15T16:06:21.889Z,8.80
2019-03-15T16:08:50.238Z,8.83
2019-03-15T16:11:18.584Z,8.79
2019-03-15T16:13:47.987Z,8.83
2019-03-15T16:16:19.533Z,8.82
2019-03-15T16:18:47.913Z,8.78
2019-03-15T16:21:16.263Z,8.79
2019-03-15T16:23:44.604Z,8.80
2019-03-15T16:26:12.964Z,8.77
2019-03-15T16:31:15.590Z,8.79
2019-03-15T16:33:43.960Z,8.84
2019-03-15T16:36:12.318Z,8.80
2019-03-15T16:38:42.777Z,8.76
2019-03-15T16:41:11.129Z,8.70
2019-03-15T16:43:39.546Z,8.75
2019-03-15T16:46:08.177Z,8.72
2019-03-15T16:48:36.516Z,8.75
2019-03-15T16:53:39.141Z,8.76
2019-03-15T16:56:07.588Z,8.75
2019-03-15T16:58:45.514Z,8.71
2019-03-15T17:01:04.302Z,8.73
2019-03-15T17:03:32.636Z,8.73
2019-03-15T17:08:35.234Z,8.75
2019-03-15T17:11:03.562Z,8.71
2019-03-15T17:16:06.304Z,8.71
2019-03-15T17:21:08.765Z,8.75
2019-03-15T17:23:38.229Z,8.70
2019-03-15T17:26:10.480Z,8.71
2019-03-15T17:28:39.811Z,8.70
2019-03-15T17:33:42.410Z,8.72
2019-03-15T17:36:10.749Z,8.73
2019-03-15T17:38:40.201Z,8.69
2019-03-15T17:43:43.827Z,8.65
2019-03-15T17:46:13.011Z,8.66
2019-03-15T17:48:40.540Z,8.69
2019-03-15T17:51:09.884Z,8.77
2019-03-15T17:53:39.187Z,8.72
2019-03-15T17:56:08.483Z,8.72
2019-03-15T17:58:36.862Z,8.74
2019-03-15T18:01:05.210Z,8.79
2019-03-15T18:03:35.475Z,8.75
2019-03-15T18:06:04.720Z,8.76
2019-03-15T18:08:33.065Z,8.78
2019-03-15T18:11:01.401Z,8.84
2019-03-15T18:13:31.679Z,8.80
2019-03-15T18:16:00.103Z,8.75
2019-03-15T18:18:28.500Z,8.76
2019-03-15T18:20:56.841Z,8.73
2019-03-15T18:23:25.224Z,8.74
2019-03-15T18:25:53.733Z,8.77
2019-03-15T18:28:22.089Z,8.73
2019-03-15T18:30:50.432Z,8.78
2019-03-15T18:33:19.002Z,8.81
2019-03-15T18:35:47.314Z,8.82
2019-03-15T18:38:21.516Z,8.78
2019-03-15T18:40:49.869Z,8.75
2019-03-15T18:43:18.221Z,8.77
2019-03-15T18:45:49.672Z,8.80
2019-03-15T18:48:18.034Z,8.73
2019-03-15T18:50:46.373Z,8.84
2019-03-15T18:53:15.652Z,8.83
2019-03-15T18:55:44.032Z,8.82
2019-03-15T18:58:13.336Z,8.87
2019-03-15T19:00:43.670Z,8.87
2019-03-15T19:05:50.274Z,8.94
2019-03-15T19:08:18.629Z,8.93
2019-03-15T19:10:47.122Z,8.95
2019-03-15T19:13:15.498Z,8.99
2019-03-15T19:15:44.069Z,9.20
2019-03-15T19:18:12.311Z,9.35
2019-03-15T19:20:40.755Z,9.21
2019-03-15T19:23:09.020Z,9.29
2019-03-15T19:25:37.434Z,9.35
2019-03-15T19:28:05.826Z,9.36
2019-03-15T19:30:36.262Z,9.39
2019-03-15T19:35:39.739Z,9.52
2019-03-15T19:38:08.146Z,9.57
2019-03-15T19:40:36.492Z,9.54
2019-03-15T19:43:04.948Z,9.56
2019-03-15T19:45:33.263Z,9.58
2019-03-15T19:48:01.609Z,9.62
2019-03-15T19:50:30.085Z,9.65
2019-03-15T19:52:58.446Z,9.67
2019-03-15T19:58:03.090Z,9.65
2019-03-15T20:00:31.458Z,9.58
2019-03-15T20:02:59.792Z,9.58
2019-03-15T20:05:28.149Z,9.73
2019-03-15T20:07:56.511Z,9.75
2019-03-15T20:10:24.868Z,9.71
2019-03-15T20:12:53.239Z,9.79
2019-03-15T20:15:21.560Z,9.82
2019-03-15T20:17:49.914Z,9.83
2019-03-15T20:20:19.242Z,9.95
2019-03-15T20:22:47.573Z,9.91
2019-03-15T20:25:15.935Z,9.83
2019-03-15T20:27:45.250Z,9.97
2019-03-15T20:32:48.774Z,9.93
2019-03-15T20:35:17.143Z,9.96
2019-03-15T20:40:19.720Z,10.03
2019-03-15T20:42:48.946Z,10.06
2019-03-15T20:45:23.756Z,9.94
2019-03-15T20:47:52.138Z,9.95
2019-03-15T20:50:21.466Z,10.01
2019-03-15T20:55:28.532Z,10.01
2019-03-15T20:57:53.896Z,9.94
2019-03-15T21:00:34.672Z,9.97
2019-03-15T21:02:51.640Z,10.00
2019-03-15T21:05:20.147Z,10.05
2019-03-15T21:07:49.376Z,9.93
2019-03-15T21:10:17.723Z,9.90
2019-03-15T21:12:46.106Z,9.96
2019-03-15T21:15:14.452Z,9.93
2019-03-15T21:17:42.787Z,9.97
2019-03-15T21:22:48.460Z,10.01
2019-03-15T21:25:16.799Z,9.92
2019-03-15T21:27:53.651Z,9.90
2019-03-15T21:30:18.856Z,9.89
2019-03-15T21:32:47.203Z,9.83
2019-03-15T21:35:15.575Z,9.79
2019-03-15T21:37:43.959Z,9.71
2019-03-15T21:40:12.973Z,9.67
2019-03-15T21:42:41.326Z,9.69
2019-03-15T21:45:09.685Z,9.61
2019-03-15T21:47:38.014Z,9.60
2019-03-15T21:50:08.285Z,9.55
2019-03-15T21:52:37.529Z,9.43
2019-03-15T21:55:09.830Z,9.49
2019-03-15T22:00:15.229Z,9.41
2019-03-15T22:02:43.597Z,9.36
2019-03-15T22:05:11.952Z,9.33
2019-03-15T22:07:40.272Z,9.33
2019-03-15T22:10:12.260Z,9.26
2019-03-15T22:12:40.598Z,9.46
2019-03-15T22:15:08.948Z,9.31
2019-03-15T22:17:37.402Z,9.27
2019-03-15T22:20:13.164Z,9.24
2019-03-15T22:22:41.547Z,9.18
2019-03-15T22:25:09.875Z,9.07
2019-03-15T22:27:39.148Z,9.00
2019-03-15T22:30:14.472Z,8.98
2019-03-15T22:32:42.867Z,8.96
2019-03-15T22:35:11.194Z,9.05
2019-03-15T22:37:39.535Z,8.92
2019-03-15T22:40:08.798Z,9.01
2019-03-15T22:42:37.152Z,9.01
2019-03-15T22:47:39.728Z,9.08
2019-03-15T22:50:08.060Z,9.10
2019-03-15T22:52:36.408Z,9.13
2019-03-15T22:55:04.907Z,9.10
2019-03-15T22:57:34.203Z,9.15
2019-03-15T23:00:03.490Z,9.17
2019-03-15T23:02:31.905Z,9.23
2019-03-15T23:07:36.463Z,9.22
2019-03-15T23:10:04.824Z,9.14
2019-03-15T23:12:34.131Z,9.13
2019-03-15T23:17:36.753Z,9.21
2019-03-15T23:20:05.944Z,9.13
2019-03-15T23:22:34.269Z,9.22
2019-03-15T23:25:02.604Z,9.31
2019-03-15T23:27:30.943Z,9.31
2019-03-15T23:30:01.179Z,9.24
2019-03-15T23:32:29.516Z,9.31
2019-03-15T23:34:58.988Z,9.25
2019-03-15T23:37:28.244Z,9.24
2019-03-15T23:39:56.660Z,9.27
2019-03-15T23:42:25.162Z,9.27
2019-03-15T23:44:53.544Z,9.30
2019-03-15T23:47:21.871Z,9.30
2019-03-15T23:49:50.196Z,9.27
2019-03-15T23:52:18.525Z,9.25
2019-03-15T23:54:46.874Z,9.34
2019-03-15T23:57:15.206Z,9.28
